Timiskaming Regional Airport
CYXR : now visible

Airfield :











YOU CAN JOIN US ON...

 
LOGIN :

Register | Disclaimer

   EN    FR    IT 

 









Legend :    VFR   Marginal VFR   IFR   Intensive IFR   Very Intensive IFR
Visi :
Ceiling :
>= 8 km
>= 3000ft
5 to 8 km
1000 to 3000 ft
1500m to 5 km
500 to 1000 ft
800 to 1500m
200 to 500 ft
< 800m
< 200 ft
Symbols :   Thunderstorms  Fog  Heavy snow  Heavy precipitations  Wind > 20 kt







- Airport Elevation : 798 ft
- IATA code : YXR


CYXR - Timiskaming Regional

CURRENT METAR :
  • 181900Z AUTO 20015KT 9SM FEW048 OVC070 27/17 A2980 RMK SLP093 DENSITY ALT 2400FT

EXPIRED METARs :
  • 181800Z AUTO 19013KT 9SM BKN055 27/16 A2982 RMK SLP100 DENSITY ALT 2400FT
  • 181700Z AUTO 16010G16KT 9SM CLR 26/16 A2983 RMK SLP105 DENSITY ALT 2300FT
  • 181600Z AUTO 16011KT 9SM SCT035 25/15 A2986 RMK SLP115 DENSITY ALT 2100FT

TAF TAF CYXR
Valid from the 18 at 18:00 until the 19 at 00:00 UTC


181742Z 1818/1824 16008G18KT P6SM FEW080 SCT200
FM182000 18012G22KT P6SM SCT050
TEMPO 1820/1824 BKN050 RMK FCST BASED ON AUTO OBS. NXT FCST WILL BE ISSUED AT 191145Z
CZYZ FIR / North America



MET'MAP, your aeronautical weather chart ! - Copyright ORBIFLY December 2007 - Disclaimer

ORBIFLY MET'MAP TEAM :

Programming & Development : Alexandra Zaïnal
Concept & Development : Baudouin d'Aumeries
Co-Development & Prog : Marc-Olivier Méhu
Technical & hardware support : Manuel Goepfert

Contact : metmap@orbifly.com




SOURCES & CREDITS :

   NOAA       Earth
Advisory